createdAt,value
2023-07-16T00:00:32.794Z,96988.53
2023-07-16T00:04:35.884Z,97003.38
2023-07-16T00:08:37.483Z,97007.00
2023-07-16T00:12:39.167Z,97032.31
2023-07-16T00:16:41.014Z,97067.75
2023-07-16T00:20:43.906Z,97116.03
2023-07-16T00:24:45.495Z,97121.28
2023-07-16T00:28:47.070Z,97137.78
2023-07-16T00:32:48.672Z,97147.81
2023-07-16T00:36:51.676Z,97155.81
2023-07-16T00:40:53.258Z,97173.88
2023-07-16T00:44:54.808Z,97150.84
2023-07-16T00:48:56.433Z,97053.69
2023-07-16T00:52:59.448Z,97089.88
2023-07-16T00:57:01.255Z,97090.06
2023-07-16T01:01:02.819Z,97113.31
2023-07-16T01:05:05.176Z,97128.16
2023-07-16T01:09:16.127Z,97147.00
2023-07-16T01:13:18.087Z,97173.03
2023-07-16T01:17:19.652Z,97169.09
2023-07-16T01:21:23.618Z,97190.44
2023-07-16T01:26:06.299Z,97215.38
2023-07-16T01:30:09.750Z,97264.16
2023-07-16T01:34:12.500Z,97321.16
2023-07-16T01:38:15.377Z,97297.97
2023-07-16T01:42:17.109Z,97297.88
2023-07-16T01:46:20.304Z,97332.03
2023-07-16T01:50:21.971Z,97349.56
2023-07-16T01:54:23.606Z,97345.38
2023-07-16T01:58:25.212Z,97350.41
2023-07-16T02:02:28.227Z,97354.63
2023-07-16T02:06:30.009Z,97373.53
2023-07-16T02:10:31.573Z,97373.16
2023-07-16T02:14:33.139Z,97376.56
2023-07-16T02:18:36.047Z,97379.88
2023-07-16T02:22:38.050Z,97372.13
2023-07-16T02:26:40.579Z,97349.03
2023-07-16T02:30:42.130Z,97347.03
2023-07-16T02:34:45.057Z,97337.00
2023-07-16T02:38:46.633Z,97323.94
2023-07-16T02:42:48.184Z,97329.78
2023-07-16T02:46:49.769Z,97313.97
2023-07-16T02:50:52.683Z,97317.41
2023-07-16T02:54:54.330Z,97344.59
2023-07-16T02:58:56.017Z,97344.59
2023-07-16T03:02:57.784Z,97354.69
2023-07-16T03:07:00.756Z,97371.75
2023-07-16T03:11:02.241Z,97407.22
2023-07-16T03:15:04.585Z,97409.66
2023-07-16T03:19:06.179Z,97409.94
2023-07-16T03:23:09.116Z,97433.31
2023-07-16T03:27:18.231Z,97452.28
2023-07-16T03:31:20.983Z,97438.03
2023-07-16T03:35:25.544Z,97425.75
2023-07-16T03:39:29.149Z,97407.59
2023-07-16T03:43:30.715Z,97405.81
2023-07-16T03:47:32.317Z,97374.50
2023-07-16T03:51:34.076Z,97380.84
2023-07-16T03:55:37.005Z,97358.31
2023-07-16T03:59:38.616Z,97340.03
2023-07-16T04:03:40.222Z,97347.72
2023-07-16T04:07:41.964Z,97343.47
2023-07-16T04:11:44.881Z,97369.00
2023-07-16T04:15:46.439Z,97383.81
2023-07-16T04:19:48.110Z,97388.31
2023-07-16T04:23:49.686Z,97370.22
2023-07-16T04:27:52.593Z,97384.50
2023-07-16T04:31:54.587Z,97401.63
2023-07-16T04:35:56.186Z,97425.69
2023-07-16T04:39:57.907Z,97444.66
2023-07-16T04:44:00.869Z,97450.94
2023-07-16T04:48:02.471Z,97469.88
2023-07-16T04:52:04.828Z,97476.94
2023-07-16T04:56:12.371Z,97473.09
2023-07-16T05:00:15.661Z,97486.94
2023-07-16T05:04:17.285Z,97497.22
2023-07-16T05:08:18.879Z,97509.94
2023-07-16T05:12:20.460Z,97520.56
2023-07-16T05:16:23.550Z,97528.81
2023-07-16T05:20:25.192Z,97523.91
2023-07-16T05:24:26.801Z,97528.81
2023-07-16T05:28:28.368Z,97525.19
2023-07-16T05:32:31.335Z,97527.63
2023-07-16T05:36:32.951Z,97531.34
2023-07-16T05:40:34.558Z,97550.72
2023-07-16T05:44:36.318Z,97548.00
2023-07-16T05:48:39.451Z,97558.38
2023-07-16T05:52:41.053Z,97550.25
2023-07-16T05:56:42.994Z,97557.84
2023-07-16T06:00:44.601Z,97559.31
2023-07-16T06:04:47.532Z,97561.75
2023-07-16T06:08:49.108Z,97568.78
2023-07-16T06:12:50.736Z,97582.91
2023-07-16T06:16:52.407Z,97581.41
2023-07-16T06:20:55.349Z,97595.94
2023-07-16T06:24:56.924Z,97593.41
2023-07-16T06:28:58.516Z,97597.41
2023-07-16T06:33:00.233Z,97611.06
2023-07-16T06:37:03.404Z,97611.81
2023-07-16T06:41:05.158Z,97614.47
2023-07-16T06:45:08.238Z,97615.03
2023-07-16T06:49:09.823Z,97620.47
2023-07-16T06:53:12.731Z,97618.09
2023-07-16T06:57:14.208Z,97648.63
2023-07-16T07:01:15.838Z,97655.75
2023-07-16T07:05:17.555Z,97661.75
2023-07-16T07:09:20.489Z,97653.19
2023-07-16T07:13:21.933Z,97654.25
2023-07-16T07:17:23.528Z,97650.41
2023-07-16T07:21:25.144Z,97654.34
2023-07-16T07:25:28.084Z,97656.09
2023-07-16T07:29:29.682Z,97659.22
2023-07-16T07:33:31.240Z,97667.78
2023-07-16T07:37:32.920Z,97651.94
2023-07-16T07:41:35.850Z,97644.81
2023-07-16T07:45:37.443Z,97653.16
2023-07-16T07:49:39.225Z,97657.94
2023-07-16T07:53:40.837Z,97665.72
2023-07-16T07:57:43.751Z,97667.09
2023-07-16T08:01:45.164Z,97648.19
2023-07-16T08:05:49.346Z,97662.75
2023-07-16T08:09:50.939Z,97667.34
2023-07-16T08:13:53.835Z,97657.50
2023-07-16T08:17:55.736Z,97669.63
2023-07-16T08:21:57.394Z,97675.03
2023-07-16T08:25:59.076Z,97676.22
2023-07-16T08:30:02.052Z,97669.34
2023-07-16T08:34:04.761Z,97673.41
2023-07-16T08:38:06.367Z,97676.06
2023-07-16T08:42:10.746Z,97665.50
2023-07-16T08:46:14.523Z,97669.03
2023-07-16T08:50:17.895Z,97668.16
2023-07-16T08:54:19.541Z,97672.00
2023-07-16T08:58:24.507Z,97674.28
2023-07-16T09:02:28.035Z,97654.31
2023-07-16T09:06:29.910Z,97642.63
2023-07-16T09:10:31.543Z,97624.44
2023-07-16T09:14:33.122Z,97620.66
2023-07-16T09:18:36.062Z,97650.81
2023-07-16T09:22:37.658Z,97667.78
2023-07-16T09:26:39.716Z,97662.75
2023-07-16T09:30:41.343Z,97671.66
2023-07-16T09:34:44.355Z,97654.16
2023-07-16T09:38:46.536Z,97669.13
2023-07-16T09:42:49.299Z,97660.53
2023-07-16T09:46:50.914Z,97653.38
2023-07-16T09:50:55.275Z,97664.53
2023-07-16T09:54:57.229Z,97660.78
2023-07-16T09:59:00.077Z,97662.34
2023-07-16T10:03:01.975Z,97654.97
2023-07-16T10:07:05.091Z,97663.69
2023-07-16T10:11:16.891Z,97657.56
2023-07-16T10:15:26.097Z,97657.22
2023-07-16T10:19:27.661Z,97656.75
2023-07-16T10:23:40.084Z,97656.13
2023-07-16T10:27:41.700Z,97640.72
2023-07-16T10:31:43.677Z,97645.88
2023-07-16T10:35:46.899Z,97639.88
2023-07-16T10:39:51.176Z,97644.13
2023-07-16T10:43:55.513Z,97645.34
2023-07-16T10:47:57.506Z,97636.66
2023-07-16T10:52:02.011Z,97635.50
2023-07-16T10:56:05.179Z,97630.56
2023-07-16T11:00:11.949Z,97635.59
2023-07-16T11:04:13.540Z,97617.56
2023-07-16T11:08:22.957Z,97611.41
2023-07-16T11:12:25.887Z,97617.75
2023-07-16T11:16:27.588Z,97639.63
2023-07-16T11:20:30.450Z,97637.75
2023-07-16T11:24:39.144Z,97637.22
2023-07-16T11:28:43.284Z,97629.06
2023-07-16T11:32:47.773Z,97637.13
2023-07-16T11:36:51.503Z,97635.91
2023-07-16T11:40:53.380Z,97628.22
2023-07-16T11:44:57.256Z,97635.28
2023-07-16T11:48:58.807Z,97616.94
2023-07-16T11:53:02.014Z,97626.97
2023-07-16T11:57:04.052Z,97630.34
2023-07-16T12:01:07.158Z,97637.78
2023-07-16T12:05:08.805Z,97609.28
2023-07-16T12:09:10.364Z,97605.19
2023-07-16T12:13:11.978Z,97601.50
2023-07-16T12:17:15.000Z,97606.19
2023-07-16T12:21:16.668Z,97600.84
2023-07-16T12:25:20.833Z,97604.97
2023-07-16T12:29:22.438Z,97597.19
2023-07-16T12:33:25.377Z,97593.59
2023-07-16T12:37:27.601Z,97597.09
2023-07-16T12:41:29.166Z,97591.97
2023-07-16T12:45:30.738Z,97581.63
2023-07-16T12:49:33.669Z,97585.03
2023-07-16T12:53:35.222Z,97589.78
2023-07-16T12:57:36.787Z,97585.47
2023-07-16T13:01:38.351Z,97584.38
2023-07-16T13:05:41.328Z,97584.66
2023-07-16T13:09:42.902Z,97576.22
2023-07-16T13:13:44.477Z,97570.38
2023-07-16T13:17:46.061Z,97577.16
2023-07-16T13:21:49.015Z,97569.47
2023-07-16T13:25:50.555Z,97570.09
2023-07-16T13:29:52.134Z,97568.22
2023-07-16T13:33:53.792Z,97571.84
2023-07-16T13:37:56.718Z,97552.44
2023-07-16T13:42:08.743Z,97543.16
2023-07-16T13:46:19.253Z,97545.59
2023-07-16T13:50:20.960Z,97550.03
2023-07-16T13:54:25.153Z,97539.94
2023-07-16T13:58:26.708Z,97536.28
2023-07-16T14:02:28.339Z,97528.19
2023-07-16T14:06:29.928Z,97523.31
2023-07-16T14:10:33.080Z,97518.47
2023-07-16T14:14:34.675Z,97521.72
2023-07-16T14:18:36.241Z,97524.16
2023-07-16T14:22:37.918Z,97521.28
2023-07-16T14:26:41.001Z,97516.84
2023-07-16T14:30:42.597Z,97517.66
2023-07-16T14:34:44.195Z,97513.63
2023-07-16T14:38:45.840Z,97512.38
2023-07-16T14:42:48.765Z,97516.06
2023-07-16T14:46:50.437Z,97512.84
2023-07-16T14:50:52.185Z,97504.72
2023-07-16T14:54:54.812Z,97503.44
2023-07-16T14:58:57.722Z,97499.06
2023-07-16T15:03:00.034Z,97497.41
2023-07-16T15:07:01.943Z,97489.19
2023-07-16T15:11:03.622Z,97495.78
2023-07-16T15:15:07.909Z,97487.31
2023-07-16T15:19:09.643Z,97494.22
2023-07-16T15:23:11.398Z,97483.56
2023-07-16T15:27:13.076Z,97483.09
2023-07-16T15:31:16.059Z,97484.44
2023-07-16T15:35:17.735Z,97480.03
2023-07-16T15:39:19.297Z,97494.56
2023-07-16T15:43:20.907Z,97466.72
2023-07-16T15:47:23.982Z,97482.81
2023-07-16T15:51:25.747Z,97491.66
2023-07-16T15:55:27.430Z,97486.03
2023-07-16T15:59:29.001Z,97474.81
2023-07-16T16:03:31.998Z,97472.22
2023-07-16T16:07:33.654Z,97478.41
2023-07-16T16:11:35.257Z,97474.72
2023-07-16T16:15:36.897Z,97477.88
2023-07-16T16:19:41.283Z,97473.16
2023-07-16T16:23:44.240Z,97477.06
2023-07-16T16:27:45.917Z,97469.72
2023-07-16T16:31:47.561Z,97480.66
2023-07-16T16:35:50.783Z,97484.50
2023-07-16T16:39:52.541Z,97486.09
2023-07-16T16:43:54.316Z,97471.16
2023-07-16T16:47:56.105Z,97476.69
2023-07-16T16:51:59.143Z,97473.16
2023-07-16T16:56:05.139Z,97468.31
2023-07-16T17:00:08.057Z,97469.91
2023-07-16T17:04:09.700Z,97456.63
2023-07-16T17:08:12.774Z,97467.09
2023-07-16T17:12:14.360Z,97477.63
2023-07-16T17:16:15.947Z,97473.97
2023-07-16T17:20:17.558Z,97473.19
2023-07-16T17:24:20.750Z,97471.16
2023-07-16T17:28:22.341Z,97469.09
2023-07-16T17:32:24.069Z,97471.47
2023-07-16T17:36:25.726Z,97459.00
2023-07-16T17:40:29.869Z,97465.13
2023-07-16T17:44:31.505Z,97465.09
2023-07-16T17:48:34.045Z,97467.44
2023-07-16T17:52:36.015Z,97453.72
2023-07-16T17:56:38.938Z,97462.97
2023-07-16T18:00:40.541Z,97463.47
2023-07-16T18:04:42.430Z,97470.09
2023-07-16T18:08:44.088Z,97475.47
2023-07-16T18:12:47.234Z,97479.88
2023-07-16T18:16:49.092Z,97486.34
2023-07-16T18:20:52.104Z,97485.78
2023-07-16T18:24:55.490Z,97480.00
2023-07-16T18:28:58.610Z,97483.97
2023-07-16T18:33:00.302Z,97487.72
2023-07-16T18:37:01.914Z,97489.88
2023-07-16T18:41:03.585Z,97494.09
2023-07-16T18:45:08.375Z,97493.31
2023-07-16T18:49:09.960Z,97496.97
2023-07-16T18:53:11.601Z,97509.22
2023-07-16T18:57:13.254Z,97514.03
2023-07-16T19:01:16.289Z,97509.78
2023-07-16T19:05:17.975Z,97520.44
2023-07-16T19:09:19.841Z,97518.03
2023-07-16T19:13:21.466Z,97513.69
2023-07-16T19:17:25.115Z,97503.97
2023-07-16T19:21:26.686Z,97511.31
2023-07-16T19:25:28.324Z,97520.25
2023-07-16T19:29:29.940Z,97520.59
2023-07-16T19:33:32.878Z,97517.41
2023-07-16T19:37:34.451Z,97523.19
2023-07-16T19:41:36.101Z,97521.31
2023-07-16T19:45:40.558Z,97522.63
2023-07-16T19:49:43.708Z,97529.09
2023-07-16T19:53:45.340Z,97518.06
2023-07-16T19:57:46.897Z,97519.41
2023-07-16T20:01:48.490Z,97522.13
2023-07-16T20:05:51.464Z,97535.16
2023-07-16T20:09:55.099Z,97534.97
2023-07-16T20:13:56.954Z,97519.03
2023-07-16T20:17:58.581Z,97529.44
2023-07-16T20:22:01.580Z,97538.00
2023-07-16T20:26:03.262Z,97537.22
2023-07-16T20:30:06.056Z,97552.47
2023-07-16T20:34:07.603Z,97551.28
2023-07-16T20:38:10.665Z,97561.84
2023-07-16T20:42:12.299Z,97560.81
2023-07-16T20:46:13.917Z,97572.81
2023-07-16T20:50:17.071Z,97563.03
2023-07-16T20:54:20.029Z,97566.88
2023-07-16T20:58:21.654Z,97560.47
2023-07-16T21:02:23.397Z,97569.09
2023-07-16T21:06:24.988Z,97554.28
2023-07-16T21:10:28.568Z,97565.41
2023-07-16T21:14:30.143Z,97548.72
2023-07-16T21:18:31.705Z,97561.41
2023-07-16T21:22:33.277Z,97570.06
2023-07-16T21:26:36.202Z,97576.47
2023-07-16T21:30:38.149Z,97573.31
2023-07-16T21:34:39.740Z,97565.84
2023-07-16T21:38:41.280Z,97567.00
2023-07-16T21:42:44.201Z,97570.28
2023-07-16T21:46:45.769Z,97573.09
2023-07-16T21:50:47.479Z,97559.91
2023-07-16T21:54:49.079Z,97569.44
2023-07-16T21:58:51.978Z,97571.81
2023-07-16T22:02:53.435Z,97560.94
2023-07-16T22:06:55.042Z,97542.72
2023-07-16T22:10:56.626Z,97536.31
2023-07-16T22:14:59.603Z,97542.72
2023-07-16T22:19:01.433Z,97530.41
2023-07-16T22:23:03.211Z,97534.19
2023-07-16T22:27:05.201Z,97527.19
2023-07-16T22:31:08.192Z,97526.63
2023-07-16T22:35:09.834Z,97534.00
2023-07-16T22:39:11.483Z,97537.94
2023-07-16T22:43:13.113Z,97546.50
2023-07-16T22:47:16.021Z,97558.00
2023-07-16T22:51:17.666Z,97569.19
2023-07-16T22:55:19.490Z,97575.50
2023-07-16T22:59:21.231Z,97585.38
2023-07-16T23:03:24.240Z,97592.72
2023-07-16T23:07:26.045Z,97598.50
2023-07-16T23:11:27.607Z,97598.28
2023-07-16T23:15:29.371Z,97595.00
2023-07-16T23:19:32.300Z,97597.31
2023-07-16T23:23:33.737Z,97592.59
2023-07-16T23:27:35.303Z,97593.63
2023-07-16T23:31:36.960Z,97586.16
2023-07-16T23:35:39.890Z,97587.16
2023-07-16T23:39:41.383Z,97606.72
2023-07-16T23:43:42.969Z,97611.72
2023-07-16T23:47:44.612Z,97616.13
2023-07-16T23:51:47.574Z,97615.00
2023-07-16T23:55:49.187Z,97617.69
2023-07-16T23:59:50.754Z,97611.13
